Time;durP1;ratioP1;P1;durP2;ratioP2;P2;SDS_P1;SDS_P2;PMS_P1;PMS_P2;Temp;Humidity;BMP_temperature;BMP_pressure;BME280_temperature;BME280_humidity;BME280_pressure;Samples;Min_cycle;Max_cycle;Signal;HPM_P1;HPM_P2
2022/04/12 00:00:42;;;;;;;2.63;2.30;;;8.00;95.60;;;;;;5054935;28;20296;-71
2022/04/12 00:03:10;;;;;;;2.92;2.63;;;7.90;95.60;;;;;;5055624;28;20667;-71
2022/04/12 00:05:38;;;;;;;7.80;4.15;;;7.90;95.70;;;;;;5056077;28;20222;-72
2022/04/12 00:08:06;;;;;;;4.75;3.10;;;7.80;95.80;;;;;;5063215;28;20237;-71
2022/04/12 00:10:34;;;;;;;3.85;2.55;;;7.80;95.80;;;;;;5056928;28;20206;-73
2022/04/12 00:13:03;;;;;;;7.20;3.00;;;7.80;96.00;;;;;;5059284;28;20194;-73
2022/04/12 00:15:30;;;;;;;7.53;3.45;;;7.80;96.00;;;;;;5054872;28;20314;-73
2022/04/12 00:20:43;;;;;;;3.03;2.10;;;7.70;96.30;;;;;;5058985;28;20308;-71
2022/04/12 00:23:12;;;;;;;3.33;3.00;;;7.70;96.30;;;;;;5056659;28;20261;-71
2022/04/12 00:25:39;;;;;;;3.90;2.95;;;7.60;96.30;;;;;;5057953;28;20295;-70
2022/04/12 00:28:07;;;;;;;5.38;3.17;;;7.60;96.30;;;;;;5055539;28;20643;-71
2022/04/12 00:30:34;;;;;;;5.00;3.15;;;7.60;96.30;;;;;;5058072;28;20209;-74
2022/04/12 00:33:02;;;;;;;4.00;2.17;;;7.60;96.40;;;;;;5054735;28;20575;-71
2022/04/12 00:35:29;;;;;;;3.90;3.10;;;7.50;96.50;;;;;;5062770;28;20762;-72
2022/04/12 00:37:55;;;;;;;6.05;3.40;;;7.50;96.60;;;;;;5057937;28;20292;-70
2022/04/12 00:40:25;;;;;;;5.13;2.92;;;7.50;96.70;;;;;;5054700;28;20269;-70
2022/04/12 00:42:52;;;;;;;9.50;2.97;;;7.50;96.80;;;;;;5054624;28;21006;-70
2022/04/12 00:45:21;;;;;;;5.22;3.30;;;7.40;97.20;;;;;;5066782;28;20319;-73
2022/04/12 00:47:48;;;;;;;4.25;2.92;;;7.40;96.80;;;;;;5063701;28;20596;-72
2022/04/12 00:50:15;;;;;;;6.43;2.72;;;7.40;97.10;;;;;;5063393;28;20608;-69
2022/04/12 00:52:48;;;;;;;3.90;2.60;;;7.40;97.20;;;;;;5051165;28;20209;-73
2022/04/12 00:55:15;;;;;;;6.05;3.65;;;7.30;97.30;;;;;;5060677;28;20236;-72
2022/04/12 00:57:42;;;;;;;4.75;2.88;;;7.40;97.30;;;;;;5058217;28;20231;-74
2022/04/12 01:00:13;;;;;;;3.45;2.80;;;7.30;97.20;;;;;;5060903;28;20231;-71
2022/04/12 01:02:41;;;;;;;2.70;2.47;;;7.30;97.40;;;;;;5057820;28;20290;-72
2022/04/12 01:05:09;;;;;;;6.65;3.20;;;7.20;97.50;;;;;;5062923;28;20230;-74
2022/04/12 01:07:36;;;;;;;3.95;3.35;;;7.20;97.40;;;;;;5057025;28;20294;-72
2022/04/12 01:10:04;;;;;;;7.00;3.10;;;7.20;97.50;;;;;;5053056;28;20209;-71
2022/04/12 01:12:38;;;;;;;5.72;2.72;;;7.20;97.60;;;;;;5060491;28;20234;-73
2022/04/12 01:15:13;;;;;;;3.30;3.00;;;7.10;97.70;;;;;;5055368;28;20224;-72
2022/04/12 01:17:42;;;;;;;4.25;3.22;;;7.00;97.80;;;;;;5059786;28;20206;-72
2022/04/12 01:20:10;;;;;;;4.40;2.85;;;7.00;98.10;;;;;;5057231;28;20199;-72
2022/04/12 01:22:45;;;;;;;3.47;2.80;;;7.00;98.40;;;;;;5058448;28;20304;-74
2022/04/12 01:25:13;;;;;;;6.57;2.70;;;7.00;98.40;;;;;;5058719;28;20225;-71
2022/04/12 01:27:41;;;;;;;4.15;3.20;;;7.00;98.60;;;;;;5056722;28;20211;-70
2022/04/12 01:30:08;;;;;;;3.25;2.63;;;7.00;98.60;;;;;;5058227;28;20291;-69
2022/04/12 01:32:35;;;;;;;4.38;3.25;;;7.00;98.60;;;;;;5057587;28;20210;-70
2022/04/12 01:35:02;;;;;;;7.63;3.13;;;6.90;98.60;;;;;;5063763;28;20723;-74
2022/04/12 01:37:29;;;;;;;4.85;2.38;;;6.90;98.70;;;;;;5062855;28;20205;-72
2022/04/12 01:39:56;;;;;;;4.70;2.88;;;6.90;98.90;;;;;;5066186;28;20219;-71
2022/04/12 01:42:24;;;;;;;4.68;2.88;;;6.90;98.90;;;;;;5053769;28;20716;-72
2022/04/12 01:44:51;;;;;;;5.28;4.13;;;6.80;99.00;;;;;;5053329;28;20311;-72
2022/04/12 01:47:18;;;;;;;12.88;3.47;;;6.80;99.10;;;;;;5052916;28;20205;-71
2022/04/12 01:49:45;;;;;;;5.88;2.70;;;6.80;99.20;;;;;;5061688;28;20592;-72
2022/04/12 01:52:13;;;;;;;3.70;3.10;;;6.80;99.10;;;;;;5054354;28;20560;-71
2022/04/12 01:54:39;;;;;;;4.30;2.42;;;6.80;99.20;;;;;;5061194;28;20223;-69
2022/04/12 01:57:07;;;;;;;3.78;2.78;;;6.80;99.40;;;;;;5056545;28;20207;-72
2022/04/12 01:59:35;;;;;;;7.63;3.08;;;6.80;99.40;;;;;;5057422;28;20307;-71
2022/04/12 02:02:02;;;;;;;3.55;2.65;;;6.80;99.40;;;;;;5056471;28;20204;-71
2022/04/12 02:04:29;;;;;;;5.07;3.50;;;6.80;99.60;;;;;;5047752;28;20318;-72
2022/04/12 02:06:56;;;;;;;4.25;2.72;;;6.80;99.60;;;;;;5058654;28;20228;-74
2022/04/12 02:09:22;;;;;;;7.38;3.50;;;6.80;99.60;;;;;;5062995;28;20196;-70
2022/04/12 02:11:49;;;;;;;3.50;2.72;;;6.80;99.70;;;;;;5060532;28;20231;-71
2022/04/12 02:14:16;;;;;;;4.75;3.38;;;6.70;99.90;;;;;;5057709;28;20250;-72
2022/04/12 02:16:44;;;;;;;9.80;3.40;;;6.70;99.90;;;;;;5053037;28;20287;-72
2022/04/12 02:19:12;;;;;;;4.35;3.15;;;6.60;99.90;;;;;;5059994;28;20598;-72
2022/04/12 02:21:39;;;;;;;5.32;3.00;;;6.60;99.90;;;;;;5057793;28;20627;-71
2022/04/12 02:24:07;;;;;;;7.70;4.20;;;6.60;99.90;;;;;;5054439;28;20239;-75
2022/04/12 02:26:35;;;;;;;5.20;3.25;;;6.70;99.90;;;;;;5056832;28;20568;-72
2022/04/12 02:29:02;;;;;;;3.42;2.88;;;6.60;99.90;;;;;;5052536;28;20287;-72
2022/04/12 02:31:30;;;;;;;4.95;3.35;;;6.50;99.90;;;;;;5055503;28;20305;-72
2022/04/12 02:33:59;;;;;;;6.57;3.40;;;6.50;99.90;;;;;;5057279;28;20629;-71
2022/04/12 02:36:25;;;;;;;7.28;3.90;;;6.60;99.90;;;;;;5057636;28;20299;-70
2022/04/12 02:38:52;;;;;;;7.82;5.50;;;6.60;99.90;;;;;;5055948;28;20600;-71
2022/04/12 02:41:19;;;;;;;4.38;3.10;;;6.60;99.90;;;;;;5060528;28;20206;-72
2022/04/12 02:43:46;;;;;;;3.50;2.90;;;6.50;99.90;;;;;;5054271;28;20635;-69
2022/04/12 02:46:14;;;;;;;4.55;3.30;;;6.60;99.90;;;;;;5063880;28;20287;-71
2022/04/12 02:48:41;;;;;;;6.05;3.00;;;6.70;99.90;;;;;;5058649;28;20261;-71
2022/04/12 02:51:09;;;;;;;3.85;3.45;;;6.70;99.90;;;;;;5056835;28;20215;-72
2022/04/12 02:53:36;;;;;;;4.07;2.70;;;6.70;99.90;;;;;;5055697;28;20216;-71
2022/04/12 02:56:03;;;;;;;3.92;3.00;;;6.70;99.90;;;;;;5050586;28;20208;-70
2022/04/12 02:58:30;;;;;;;5.88;3.45;;;6.60;99.90;;;;;;5054685;28;20283;-72
2022/04/12 03:00:57;;;;;;;6.22;3.70;;;6.60;99.90;;;;;;5056066;28;20195;-69
2022/04/12 03:03:24;;;;;;;7.53;3.55;;;6.60;99.90;;;;;;5052185;28;20227;-73
2022/04/12 03:05:51;;;;;;;5.95;3.72;;;6.60;99.90;;;;;;5059107;28;20226;-71
2022/04/12 03:08:20;;;;;;;4.32;3.28;;;6.70;99.90;;;;;;5052439;28;20211;-71
2022/04/12 03:10:47;;;;;;;6.60;4.20;;;6.70;99.90;;;;;;5059836;28;20737;-72
2022/04/12 03:13:14;;;;;;;7.20;3.58;;;6.70;99.90;;;;;;5053797;28;20204;-72
2022/04/12 03:15:41;;;;;;;6.75;4.93;;;6.80;99.90;;;;;;5062188;28;20640;-73
2022/04/12 03:18:08;;;;;;;5.10;3.50;;;6.70;99.90;;;;;;5057111;28;20221;-72
2022/04/12 03:20:35;;;;;;;4.10;3.67;;;6.80;99.90;;;;;;5057190;28;20285;-71
2022/04/12 03:23:03;;;;;;;4.95;3.92;;;6.80;99.90;;;;;;5061710;28;20249;-71
2022/04/12 03:25:31;;;;;;;4.60;3.35;;;6.80;99.90;;;;;;5057947;28;20228;-71
2022/04/12 03:28:00;;;;;;;4.90;4.38;;;6.80;99.90;;;;;;5060799;28;20291;-73
2022/04/12 03:30:27;;;;;;;5.75;3.70;;;6.90;99.90;;;;;;5059147;28;20201;-74
2022/04/12 03:32:54;;;;;;;8.20;4.07;;;6.90;99.90;;;;;;5064217;28;20702;-72
2022/04/12 03:35:25;;;;;;;4.50;3.65;;;7.00;99.90;;;;;;5060815;28;20274;-71
2022/04/12 03:37:59;;;;;;;7.30;4.25;;;7.00;99.90;;;;;;5058752;28;20200;-74
2022/04/12 03:40:27;;;;;;;7.82;4.32;;;7.10;99.90;;;;;;5061925;28;20207;-71
2022/04/12 03:42:55;;;;;;;5.32;4.55;;;7.10;99.90;;;;;;5056840;28;20311;-69
2022/04/12 03:45:22;;;;;;;8.80;4.53;;;7.10;99.90;;;;;;5063282;28;20279;-71
2022/04/12 03:47:49;;;;;;;7.45;4.53;;;7.10;99.90;;;;;;5058915;28;20201;-72
2022/04/12 03:50:16;;;;;;;7.00;4.18;;;7.20;99.90;;;;;;5054480;28;20289;-70
2022/04/12 03:52:42;;;;;;;6.53;4.45;;;7.20;99.60;;;;;;5066562;28;20273;-71
2022/04/12 03:55:11;;;;;;;6.45;4.32;;;7.20;99.90;;;;;;5060425;28;20230;-71
2022/04/12 03:57:38;;;;;;;7.38;4.63;;;7.20;99.40;;;;;;5068822;28;20202;-72
2022/04/12 04:00:09;;;;;;;7.30;4.78;;;7.20;99.50;;;;;;5059254;28;20212;-74
2022/04/12 04:02:36;;;;;;;12.32;4.45;;;7.10;99.60;;;;;;5059569;28;20298;-71
2022/04/12 04:05:03;;;;;;;9.07;4.25;;;7.20;99.40;;;;;;5058129;28;20306;-71
2022/04/12 04:07:30;;;;;;;8.98;4.53;;;7.00;99.60;;;;;;5064201;28;20227;-71
2022/04/12 04:09:57;;;;;;;4.65;4.25;;;7.20;99.50;;;;;;5060074;28;20205;-70
2022/04/12 04:12:24;;;;;;;6.32;4.45;;;7.10;99.20;;;;;;5054783;28;20271;-73
2022/04/12 04:14:51;;;;;;;7.30;4.85;;;7.10;99.20;;;;;;5054395;28;20272;-72
2022/04/12 04:17:20;;;;;;;7.43;4.82;;;7.10;99.50;;;;;;5063303;28;20202;-72
2022/04/12 04:19:46;;;;;;;7.28;5.88;;;7.30;99.80;;;;;;5053965;28;20200;-71
2022/04/12 04:22:13;;;;;;;7.85;4.82;;;7.20;99.30;;;;;;5058108;28;20210;-70
2022/04/12 04:24:40;;;;;;;5.88;5.03;;;7.20;99.20;;;;;;5061554;28;20313;-72
2022/04/12 04:27:08;;;;;;;6.35;5.22;;;7.20;99.10;;;;;;5061234;28;20200;-71
2022/04/12 04:29:35;;;;;;;6.80;4.93;;;7.10;99.60;;;;;;5054175;28;20206;-75
2022/04/12 04:32:02;;;;;;;8.77;4.80;;;7.10;99.40;;;;;;5057537;28;20199;-72
2022/04/12 04:34:30;;;;;;;9.15;5.30;;;7.10;99.50;;;;;;5057376;28;20311;-72
2022/04/12 04:36:57;;;;;;;6.68;4.85;;;7.10;99.50;;;;;;5057766;28;20208;-71
2022/04/12 04:39:24;;;;;;;7.10;4.82;;;7.00;99.50;;;;;;5056839;28;20611;-72
2022/04/12 04:41:51;;;;;;;5.93;5.30;;;7.10;99.50;;;;;;5064501;28;20267;-74
2022/04/12 04:44:18;;;;;;;5.32;4.80;;;7.10;99.30;;;;;;5055579;28;20231;-73
2022/04/12 04:46:45;;;;;;;8.75;5.55;;;7.10;99.30;;;;;;5058650;28;20633;-71
2022/04/12 04:49:12;;;;;;;8.88;5.10;;;7.10;99.30;;;;;;5057037;28;20659;-72
2022/04/12 04:51:41;;;;;;;7.38;5.47;;;7.10;99.50;;;;;;5054071;28;20539;-72
2022/04/12 04:54:08;;;;;;;12.15;5.53;;;7.10;99.50;;;;;;5057242;28;20328;-71
2022/04/12 04:56:35;;;;;;;7.18;5.13;;;7.20;99.50;;;;;;5067005;28;20207;-73
2022/04/12 04:59:02;;;;;;;7.20;5.07;;;7.20;99.10;;;;;;5060952;28;20208;-72
2022/04/12 05:01:29;;;;;;;7.43;5.18;;;7.20;99.00;;;;;;5052209;28;20196;-72
2022/04/12 05:03:57;;;;;;;8.73;6.07;;;7.20;99.00;;;;;;5056385;28;20240;-71
2022/04/12 05:06:24;;;;;;;10.40;5.10;;;7.20;99.00;;;;;;5060110;28;20217;-72
2022/04/12 05:08:52;;;;;;;9.05;5.88;;;7.20;99.10;;;;;;5049100;28;20447;-72
2022/04/12 05:11:19;;;;;;;9.77;5.55;;;7.20;98.90;;;;;;5049066;28;20317;-71
2022/04/12 05:13:46;;;;;;;11.55;7.70;;;7.30;98.70;;;;;;5060493;28;20199;-72
2022/04/12 05:16:13;;;;;;;11.73;5.65;;;7.40;98.90;;;;;;5059355;28;20611;-70
2022/04/12 05:18:40;;;;;;;7.60;5.45;;;7.50;98.20;;;;;;5055197;28;20201;-70
2022/04/12 05:21:07;;;;;;;5.85;5.25;;;7.50;98.00;;;;;;5060461;28;20197;-71
2022/04/12 05:23:35;;;;;;;9.07;5.43;;;7.60;97.90;;;;;;5055326;28;20320;-70
2022/04/12 05:26:03;;;;;;;10.02;5.43;;;7.60;97.70;;;;;;5058651;28;20263;-71
2022/04/12 05:28:30;;;;;;;9.77;5.60;;;7.70;97.20;;;;;;5056596;28;20205;-72
2022/04/12 05:30:57;;;;;;;9.50;5.85;;;7.80;97.00;;;;;;5064442;28;20461;-72
2022/04/12 05:33:24;;;;;;;7.22;5.55;;;7.90;96.90;;;;;;5061915;28;20205;-72
2022/04/12 05:35:51;;;;;;;8.07;5.20;;;7.90;96.40;;;;;;5065548;28;20234;-71
2022/04/12 05:38:18;;;;;;;6.70;4.70;;;8.00;96.30;;;;;;5057303;28;20276;-71
2022/04/12 05:40:45;;;;;;;6.70;5.47;;;8.00;96.20;;;;;;5054553;28;20203;-72
2022/04/12 05:43:13;;;;;;;6.82;5.22;;;8.10;96.00;;;;;;5053066;28;20240;-73
2022/04/12 05:45:40;;;;;;;10.75;5.32;;;8.00;95.90;;;;;;5056804;28;20237;-69
2022/04/12 05:48:08;;;;;;;10.95;6.10;;;8.00;95.80;;;;;;5060026;28;20293;-71
2022/04/12 05:50:35;;;;;;;8.25;5.43;;;8.10;95.80;;;;;;5056565;28;20206;-73
2022/04/12 05:53:02;;;;;;;10.13;5.30;;;8.20;95.50;;;;;;5058858;28;20233;-74
2022/04/12 05:55:29;;;;;;;8.88;4.82;;;8.20;95.30;;;;;;5039233;28;20310;-73
2022/04/12 05:57:59;;;;;;;8.57;5.40;;;8.30;95.20;;;;;;5054419;28;20198;-75
2022/04/12 06:00:29;;;;;;;8.48;5.30;;;8.40;95.20;;;;;;5052131;28;20218;-73
2022/04/12 06:02:57;;;;;;;11.07;5.55;;;8.60;94.80;;;;;;5056687;28;20256;-75
2022/04/12 06:05:28;;;;;;;10.27;6.80;;;8.80;94.40;;;;;;5054644;28;20234;-76
2022/04/12 06:07:55;;;;;;;9.32;5.65;;;9.00;94.00;;;;;;5064988;28;20214;-73
2022/04/12 06:10:23;;;;;;;8.07;5.00;;;9.10;93.50;;;;;;5066601;28;20204;-71
2022/04/12 06:12:51;;;;;;;8.15;5.97;;;9.10;93.20;;;;;;5066405;28;20290;-73
2022/04/12 06:15:19;;;;;;;6.63;5.30;;;9.30;93.10;;;;;;5057683;28;20220;-72
2022/04/12 06:17:47;;;;;;;7.25;5.57;;;9.50;92.70;;;;;;5051860;28;20241;-71
2022/04/12 06:20:16;;;;;;;9.75;6.07;;;9.70;92.20;;;;;;5061017;28;20291;-71
2022/04/12 06:22:43;;;;;;;9.77;4.90;;;9.90;91.50;;;;;;5057867;28;20200;-71
2022/04/12 06:25:12;;;;;;;13.88;5.55;;;9.90;90.90;;;;;;5060778;28;20232;-73
2022/04/12 06:27:41;;;;;;;10.82;5.60;;;10.00;90.60;;;;;;5056974;28;20295;-74
2022/04/12 06:30:10;;;;;;;7.80;5.20;;;10.00;90.70;;;;;;5059330;28;20236;-70
2022/04/12 06:32:38;;;;;;;8.45;4.93;;;10.00;90.30;;;;;;5055958;28;20602;-69
2022/04/12 06:35:10;;;;;;;8.82;6.40;;;10.10;90.20;;;;;;5046419;28;20223;-69
2022/04/12 06:37:37;;;;;;;7.93;5.65;;;10.20;90.10;;;;;;5060934;28;20206;-71
2022/04/12 06:40:06;;;;;;;6.97;5.20;;;10.20;90.00;;;;;;5047387;28;20702;-69
2022/04/12 06:42:34;;;;;;;9.50;6.15;;;10.30;89.70;;;;;;5059545;28;20218;-69
2022/04/12 06:45:01;;;;;;;7.50;5.90;;;10.40;89.50;;;;;;5054228;28;20228;-67
2022/04/12 06:47:28;;;;;;;10.40;6.53;;;10.70;88.70;;;;;;5047166;28;20455;-72
2022/04/12 06:49:56;;;;;;;10.48;6.10;;;11.00;88.10;;;;;;5054026;28;20199;-70
2022/04/12 06:52:26;;;;;;;7.75;5.65;;;11.40;86.60;;;;;;5047862;28;20287;-69
2022/04/12 06:54:53;;;;;;;6.90;5.43;;;11.70;85.10;;;;;;5057804;28;20230;-69
2022/04/12 06:57:22;;;;;;;7.78;5.30;;;11.90;84.50;;;;;;5050107;28;20746;-70
2022/04/12 06:59:50;;;;;;;8.43;6.40;;;12.40;82.90;;;;;;5065710;28;20721;-68
2022/04/12 07:02:17;;;;;;;12.80;6.10;;;12.80;82.50;;;;;;5061564;28;20228;-67
2022/04/12 07:04:44;;;;;;;6.40;5.15;;;13.60;80.80;;;;;;5058107;28;20242;-68
2022/04/12 07:07:11;;;;;;;7.63;5.38;;;14.30;78.70;;;;;;5060960;28;20294;-69
2022/04/12 07:09:40;;;;;;;6.80;5.35;;;15.10;75.80;;;;;;5057786;28;20719;-67
2022/04/12 07:12:08;;;;;;;8.03;5.60;;;16.20;73.80;;;;;;5048059;28;20570;-69
2022/04/12 07:14:36;;;;;;;7.07;4.73;;;17.20;70.00;;;;;;5062062;28;20475;-69
2022/04/12 07:17:05;;;;;;;5.60;4.60;;;18.20;66.40;;;;;;5064535;28;20449;-68
2022/04/12 07:19:32;;;;;;;8.80;4.53;;;19.20;64.00;;;;;;5056729;28;20496;-70
2022/04/12 07:21:59;;;;;;;6.00;4.90;;;19.50;60.10;;;;;;5055498;28;20482;-67
2022/04/12 07:24:26;;;;;;;8.47;5.10;;;19.30;59.50;;;;;;5061802;28;20491;-68
2022/04/12 07:26:54;;;;;;;5.83;4.50;;;19.30;59.10;;;;;;5066265;28;20453;-70
2022/04/12 07:29:21;;;;;;;4.90;4.23;;;19.20;58.50;;;;;;5044620;28;20492;-70
2022/04/12 07:31:48;;;;;;;5.10;4.13;;;19.30;58.80;;;;;;5041416;28;20439;-68
2022/04/12 07:34:16;;;;;;;8.20;5.53;;;19.30;57.60;;;;;;5060143;28;20972;-69
2022/04/12 07:36:47;;;;;;;6.87;5.13;;;19.00;57.40;;;;;;5058049;28;20517;-67
2022/04/12 07:39:15;;;;;;;9.43;5.27;;;18.70;57.70;;;;;;5062575;28;20454;-68
2022/04/12 07:41:42;;;;;;;7.93;5.57;;;18.80;58.10;;;;;;5060090;28;20445;-69
2022/04/12 07:44:11;;;;;;;13.00;5.60;;;19.10;57.40;;;;;;5056400;28;20500;-69
2022/04/12 07:46:38;;;;;;;4.73;4.07;;;19.30;57.30;;;;;;5062419;28;20523;-69
2022/04/12 07:49:05;;;;;;;9.17;5.97;;;19.40;56.90;;;;;;5056915;28;20454;-70
2022/04/12 07:51:32;;;;;;;6.10;5.33;;;19.50;57.20;;;;;;5047000;28;20535;-67
2022/04/12 07:54:01;;;;;;;5.77;5.00;;;19.70;56.50;;;;;;5046327;28;20460;-68
2022/04/12 07:56:28;;;;;;;5.53;4.90;;;20.00;56.30;;;;;;5046989;28;20831;-69
2022/04/12 07:58:55;;;;;;;6.50;5.20;;;20.70;55.20;;;;;;5046555;28;21146;-69
2022/04/12 08:01:23;;;;;;;6.87;4.70;;;21.10;54.40;;;;;;5054954;28;20517;-68
2022/04/12 08:03:50;;;;;;;7.33;5.20;;;20.70;53.40;;;;;;5060895;28;20815;-68
2022/04/12 08:06:17;;;;;;;6.30;4.83;;;20.70;54.10;;;;;;5058064;28;20936;-67
2022/04/12 08:08:44;;;;;;;8.67;5.83;;;21.10;54.10;;;;;;5063376;28;20537;-69
2022/04/12 08:11:12;;;;;;;6.17;5.37;;;21.50;53.40;;;;;;5060876;28;20442;-69
2022/04/12 08:13:39;;;;;;;9.87;5.73;;;21.70;53.10;;;;;;5066239;28;20881;-70
2022/04/12 08:16:08;;;;;;;6.83;4.93;;;22.00;52.40;;;;;;5059729;28;20480;-69
2022/04/12 08:18:36;;;;;;;8.50;6.40;;;22.50;51.70;;;;;;5058856;28;20446;-69
2022/04/12 08:21:03;;;;;;;6.70;5.07;;;22.80;51.10;;;;;;5056526;28;20442;-69
2022/04/12 08:23:30;;;;;;;9.70;6.30;;;22.60;51.30;;;;;;5060869;28;20532;-68
2022/04/12 08:25:57;;;;;;;6.27;5.50;;;22.90;51.00;;;;;;5063370;28;20485;-68
2022/04/12 08:28:24;;;;;;;8.70;4.67;;;23.50;49.70;;;;;;5061248;28;20468;-70
2022/04/12 08:30:51;;;;;;;6.60;5.30;;;23.00;49.10;;;;;;5059761;28;20457;-70
2022/04/12 08:33:18;;;;;;;7.97;5.60;;;22.00;49.90;;;;;;5054396;28;20948;-70
2022/04/12 08:35:47;;;;;;;9.23;5.23;;;21.50;51.20;;;;;;5057630;28;20541;-68
2022/04/12 08:38:14;;;;;;;8.53;5.83;;;21.30;51.50;;;;;;5062229;28;20514;-68
2022/04/12 08:40:41;;;;;;;7.60;4.90;;;21.30;52.20;;;;;;5058805;28;20452;-68
2022/04/12 08:43:09;;;;;;;8.53;5.30;;;20.70;53.40;;;;;;5056623;28;20442;-70
2022/04/12 08:45:37;;;;;;;8.27;5.50;;;20.10;53.80;;;;;;5054580;28;20569;-69
2022/04/12 08:48:07;;;;;;;9.30;5.87;;;19.40;54.90;;;;;;5056386;28;20445;-67
2022/04/12 08:50:37;;;;;;;6.60;4.77;;;19.10;56.40;;;;;;5058924;28;20476;-70
2022/04/12 08:53:07;;;;;;;8.23;6.77;;;18.90;56.80;;;;;;5053491;28;20462;-69
2022/04/12 08:55:34;;;;;;;5.70;4.80;;;18.90;57.30;;;;;;5060184;28;20549;-69
2022/04/12 08:58:01;;;;;;;6.03;4.47;;;19.20;57.60;;;;;;5063777;28;20530;-69
2022/04/12 09:00:28;;;;;;;9.40;4.83;;;19.30;55.90;;;;;;5052856;28;20889;-70
2022/04/12 09:02:59;;;;;;;7.80;4.87;;;19.50;56.40;;;;;;5053581;28;20450;-67
2022/04/12 09:05:27;;;;;;;5.90;5.30;;;19.90;55.80;;;;;;5055045;28;20488;-69
2022/04/12 09:07:54;;;;;;;9.93;5.07;;;20.20;54.80;;;;;;5056798;28;20452;-67
2022/04/12 09:10:33;;;;;;;7.93;3.93;;;19.90;54.20;;;;;;5056750;28;20522;-68
2022/04/12 09:13:10;;;;;;;8.10;4.90;;;19.50;54.50;;;;;;5054440;28;20440;-68
2022/04/12 09:15:43;;;;;;;11.03;5.30;;;19.30;55.50;;;;;;5050044;28;20480;-69
2022/04/12 09:18:11;;;;;;;6.10;5.00;;;19.10;56.00;;;;;;5055723;28;20933;-68
2022/04/12 09:20:38;;;;;;;7.17;5.50;;;19.20;56.10;;;;;;5063595;28;20946;-68
2022/04/12 09:23:15;;;;;;;7.77;5.60;;;19.20;56.00;;;;;;5056494;28;20532;-68
2022/04/12 09:25:55;;;;;;;6.40;4.97;;;19.50;55.20;;;;;;5047070;28;20492;-68
2022/04/12 09:28:22;;;;;;;7.90;5.10;;;20.00;55.10;;;;;;5054577;28;20450;-69
2022/04/12 09:30:53;;;;;;;7.60;6.40;;;20.60;54.30;;;;;;5057864;28;20452;-69
2022/04/12 09:33:36;;;;;;;7.63;5.00;;;21.30;53.30;;;;;;5058074;28;20442;-67
2022/04/12 09:36:04;;;;;;;6.47;4.70;;;21.80;52.40;;;;;;5056275;28;20445;-69
2022/04/12 09:38:33;;;;;;;8.00;5.83;;;21.60;52.60;;;;;;5052787;28;20844;-67
2022/04/12 09:41:14;;;;;;;6.70;5.43;;;22.10;52.30;;;;;;5052410;28;20449;-68
2022/04/12 09:43:55;;;;;;;9.03;6.23;;;22.00;51.60;;;;;;5048513;28;20456;-68
2022/04/12 09:46:23;;;;;;;6.50;5.20;;;21.00;52.40;;;;;;5047316;28;20565;-67
2022/04/12 09:48:52;;;;;;;12.20;6.37;;;20.90;53.30;;;;;;5051994;28;20559;-69
2022/04/12 09:51:22;;;;;;;7.40;6.17;;;21.00;53.10;;;;;;5046465;28;20446;-67
2022/04/12 09:53:49;;;;;;;7.10;6.37;;;20.90;53.00;;;;;;5058774;28;20451;-68
2022/04/12 09:56:22;;;;;;;7.70;5.00;;;21.20;53.10;;;;;;5063701;28;20438;-67
2022/04/12 09:58:52;;;;;;;9.30;5.93;;;21.60;53.00;;;;;;5055317;28;20458;-68
2022/04/12 10:01:20;;;;;;;5.87;5.20;;;21.60;52.20;;;;;;5043153;28;20446;-69
2022/04/12 10:03:49;;;;;;;7.33;5.73;;;21.20;52.00;;;;;;5042572;28;20446;-67
2022/04/12 10:06:20;;;;;;;12.40;5.93;;;21.00;52.90;;;;;;5063065;28;20557;-69
2022/04/12 10:08:52;;;;;;;7.60;5.67;;;20.90;53.00;;;;;;5052352;28;20928;-68
2022/04/12 10:11:24;;;;;;;5.87;5.00;;;21.00;53.00;;;;;;5064480;28;20448;-68
2022/04/12 10:13:51;;;;;;;10.60;6.27;;;20.80;52.80;;;;;;5062331;28;20475;-67
2022/04/12 10:16:20;;;;;;;6.97;5.60;;;20.50;53.00;;;;;;5054149;28;20451;-69
2022/04/12 10:18:48;;;;;;;7.90;5.23;;;20.40;53.90;;;;;;5052765;28;21036;-68
2022/04/12 10:21:15;;;;;;;8.30;4.97;;;20.70;53.80;;;;;;5059428;28;20452;-68
2022/04/12 10:23:45;;;;;;;8.07;5.23;;;20.80;52.80;;;;;;5041803;28;20443;-69
2022/04/12 10:26:12;;;;;;;7.43;5.37;;;21.10;52.70;;;;;;5045617;28;20791;-70
2022/04/12 10:28:42;;;;;;;6.00;4.70;;;21.20;52.10;;;;;;5058336;28;20461;-69
2022/04/12 10:31:25;;;;;;;6.10;4.70;;;20.80;51.60;;;;;;5063216;28;20454;-68
2022/04/12 10:34:09;;;;;;;11.03;4.40;;;20.70;52.70;;;;;;5064576;28;21008;-68
2022/04/12 10:36:55;;;;;;;6.60;4.80;;;20.50;52.50;;;;;;5057323;28;20510;-67
2022/04/12 10:39:26;;;;;;;7.00;5.10;;;20.30;52.60;;;;;;5062653;28;20522;-68
2022/04/12 10:41:56;;;;;;;12.43;5.77;;;19.70;52.90;;;;;;5062271;28;20449;-67
2022/04/12 10:44:25;;;;;;;7.10;5.27;;;19.40;53.60;;;;;;5061835;28;20499;-68
2022/04/12 10:46:57;;;;;;;6.03;4.80;;;19.20;53.70;;;;;;5060463;28;20447;-69
2022/04/12 10:49:24;;;;;;;5.50;4.80;;;18.90;54.30;;;;;;5061737;28;20548;-68
2022/04/12 10:52:01;;;;;;;5.40;4.63;;;18.60;54.00;;;;;;5059392;28;20967;-69
2022/04/12 10:54:30;;;;;;;7.20;5.83;;;18.60;55.20;;;;;;5056870;28;20508;-69
2022/04/12 10:57:23;;;;;;;5.07;4.33;;;18.60;54.80;;;;;;5063248;28;20519;-69
2022/04/12 10:59:53;;;;;;;5.77;4.87;;;18.70;55.40;;;;;;5057553;28;20464;-71
2022/04/12 11:02:21;;;;;;;7.83;4.90;;;18.80;55.40;;;;;;5057160;28;20962;-71
2022/04/12 11:04:48;;;;;;;8.57;5.47;;;19.00;55.50;;;;;;5061315;28;20959;-69
2022/04/12 11:07:32;;;;;;;6.87;5.47;;;19.10;55.30;;;;;;5058694;28;20978;-68
2022/04/12 11:10:19;;;;;;;8.47;5.30;;;19.10;55.20;;;;;;5059436;28;20782;-70
2022/04/12 11:12:46;;;;;;;7.33;5.90;;;19.10;55.50;;;;;;5069906;28;20445;-68
2022/04/12 11:15:27;;;;;;;7.80;6.90;;;19.10;55.40;;;;;;5056716;28;20456;-68
2022/04/12 11:18:08;;;;;;;7.33;5.30;;;18.90;55.40;;;;;;5055503;28;20547;-70
2022/04/12 11:20:37;;;;;;;6.90;5.83;;;18.70;55.80;;;;;;5050826;28;20449;-68
2022/04/12 11:23:08;;;;;;;8.70;5.27;;;18.70;55.80;;;;;;5047267;28;20665;-69
2022/04/12 11:25:37;;;;;;;8.33;5.50;;;18.70;56.00;;;;;;5053070;28;20493;-70
2022/04/12 11:28:04;;;;;;;8.10;5.90;;;18.60;56.40;;;;;;5056655;28;20863;-69
2022/04/12 11:30:34;;;;;;;6.30;5.20;;;18.60;56.50;;;;;;5060281;28;20508;-70
2022/04/12 11:33:01;;;;;;;7.33;5.80;;;18.60;56.30;;;;;;5055149;28;20548;-71
2022/04/12 11:35:28;;;;;;;8.40;6.40;;;18.50;56.50;;;;;;5061611;28;20469;-68
2022/04/12 11:37:55;;;;;;;8.27;6.13;;;18.50;57.00;;;;;;5055335;28;20461;-69
2022/04/12 11:40:25;;;;;;;8.97;7.17;;;18.70;55.90;;;;;;5058298;28;20446;-67
2022/04/12 11:42:55;;;;;;;10.90;6.47;;;18.70;56.20;;;;;;5064340;28;20512;-69
2022/04/12 11:45:31;;;;;;;7.37;6.20;;;18.50;56.10;;;;;;5057016;28;20701;-69
2022/04/12 11:48:00;;;;;;;10.60;6.77;;;18.60;56.70;;;;;;5055862;28;20444;-68
2022/04/12 11:50:28;;;;;;;10.83;7.57;;;18.50;57.00;;;;;;5054644;28;20473;-69
2022/04/12 11:52:58;;;;;;;11.80;7.70;;;18.60;57.80;;;;;;5062434;28;20445;-70
2022/04/12 11:55:25;;;;;;;9.70;6.87;;;18.70;57.70;;;;;;5062643;28;20543;-69
2022/04/12 11:57:52;;;;;;;10.10;6.67;;;18.60;57.30;;;;;;5063457;28;20523;-70
2022/04/12 12:00:21;;;;;;;9.73;7.33;;;18.70;57.10;;;;;;5061489;28;20457;-67
2022/04/12 12:02:51;;;;;;;9.93;7.60;;;18.70;57.50;;;;;;5064388;28;20797;-68
2022/04/12 12:05:21;;;;;;;8.70;6.83;;;18.70;57.30;;;;;;5056514;28;20485;-69
2022/04/12 12:07:48;;;;;;;9.50;7.10;;;18.60;57.30;;;;;;5058784;28;20485;-70
2022/04/12 12:10:16;;;;;;;9.20;7.23;;;18.70;57.40;;;;;;5058510;28;20533;-70
2022/04/12 12:12:45;;;;;;;9.33;7.13;;;18.70;57.10;;;;;;5060564;28;20913;-69
2022/04/12 12:15:17;;;;;;;9.53;6.50;;;18.60;56.50;;;;;;5059140;28;20526;-71
2022/04/12 12:17:45;;;;;;;10.80;8.20;;;18.80;57.00;;;;;;5058004;28;20561;-68
2022/04/12 12:20:13;;;;;;;8.70;6.80;;;18.80;56.50;;;;;;5055185;28;20449;-68
2022/04/12 12:22:43;;;;;;;10.77;7.10;;;18.90;57.20;;;;;;5058121;28;20540;-68
2022/04/12 12:25:18;;;;;;;9.90;6.97;;;18.90;57.80;;;;;;5063730;28;20469;-70
2022/04/12 12:27:49;;;;;;;9.87;7.30;;;19.00;57.50;;;;;;5059759;28;20858;-70
2022/04/12 12:30:19;;;;;;;11.17;7.30;;;19.00;58.20;;;;;;5064693;28;20433;-71
2022/04/12 12:32:46;;;;;;;10.00;6.40;;;19.10;57.10;;;;;;5067318;28;20474;-68
2022/04/12 12:35:15;;;;;;;12.03;7.07;;;19.10;57.20;;;;;;5060316;28;20866;-70
2022/04/12 12:37:45;;;;;;;11.17;6.50;;;19.20;58.10;;;;;;5057241;28;20450;-70
2022/04/12 12:40:20;;;;;;;8.90;7.10;;;19.20;58.10;;;;;;5054374;28;20819;-69
2022/04/12 12:42:48;;;;;;;9.73;6.53;;;19.20;58.00;;;;;;5060833;28;20441;-68
2022/04/12 12:45:17;;;;;;;9.67;7.10;;;19.10;58.00;;;;;;5055052;28;20581;-69
2022/04/12 12:47:46;;;;;;;9.80;7.60;;;19.10;58.50;;;;;;5068108;28;20450;-70
2022/04/12 12:50:15;;;;;;;9.77;6.33;;;19.10;57.90;;;;;;5063570;28;20456;-70
2022/04/12 12:52:44;;;;;;;10.70;8.07;;;19.10;57.80;;;;;;5059383;28;20865;-70
2022/04/12 12:55:16;;;;;;;11.03;7.83;;;19.20;57.70;;;;;;5057899;28;20554;-69
2022/04/12 12:57:46;;;;;;;12.67;8.50;;;19.20;58.70;;;;;;5055124;28;20454;-70
2022/04/12 13:00:16;;;;;;;13.73;7.80;;;19.30;58.40;;;;;;5059295;28;20966;-69